Decoded Metar for K1A5 (MACON/FRANKLIN in NC, USA) (IATA:1A5) | Meteo·Mobile Aviation Weather
aviador You're here:

K1A5 Decoded Metar

MACON/FRANKLIN in NC, USA
Report Time2019-07-22 15:45:00
UTC Time2019-07-22 16:05:25
Flight Rules vfr VFR
WindCalm
Visibility9999 m
Phenomena:N/A
Clouds:Scattered 035 Hf
Broken 041 Hf
Overcast 050 Hf
Expected CloudBase > 2,800 ft AGL from Temp-Dew spread
Ceiling4,100 ft
Temp27°C (ISA +16)
Dew Point20°C (66% RH)
Heat Index28.5°C
QNH1019 hPa
Density Alt3,976 ft
Elevation2,021 ft
Report Wrong Elevation
Raw Report
METAR K1A5 221545Z AUTO 00000KT 10SM SCT035 BKN041 OVC050 27/20 A3009
RMK AO2 T02680197=

Extra information for K1A5:More info

Metar Taf Metar & Taf Last 4 Metars F.Rules Stats Wind Profile Meteogram Temp Stats Airport Information Weather charts Add Link Nearby VenuesMetar ALERT Operation Metar Decoded Social comments

AIRNAV info for K1A5